createdAt,value
2023-05-14T00:02:12.906Z,12.10
2023-05-14T00:04:41.096Z,12.10
2023-05-14T00:07:08.067Z,12.20
2023-05-14T00:09:35.513Z,12.20
2023-05-14T00:12:02.550Z,12.20
2023-05-14T00:14:29.491Z,12.20
2023-05-14T00:16:56.468Z,12.10
2023-05-14T00:19:23.725Z,12.10
2023-05-14T00:21:50.734Z,12.20
2023-05-14T00:24:17.655Z,12.20
2023-05-14T00:26:44.801Z,12.10
2023-05-14T00:29:11.846Z,12.20
2023-05-14T00:31:38.813Z,12.10
2023-05-14T00:34:05.866Z,12.20
2023-05-14T00:36:32.812Z,12.10
2023-05-14T00:38:59.696Z,12.10
2023-05-14T00:41:26.609Z,12.20
2023-05-14T00:43:53.784Z,12.20
2023-05-14T00:46:20.792Z,12.20
2023-05-14T00:48:47.853Z,12.20
2023-05-14T00:51:14.900Z,12.20
2023-05-14T00:53:42.208Z,12.10
2023-05-14T00:56:10.990Z,12.20
2023-05-14T00:58:38.128Z,12.20
2023-05-14T01:01:05.282Z,12.20
2023-05-14T01:03:32.806Z,12.20
2023-05-14T01:06:32.548Z,12.20
2023-05-14T01:09:19.079Z,12.20
2023-05-14T01:12:02.745Z,12.20
2023-05-14T01:14:52.282Z,12.20
2023-05-14T01:17:21.671Z,12.20
2023-05-14T01:19:49.008Z,12.20
2023-05-14T01:22:16.420Z,12.20
2023-05-14T01:24:43.326Z,12.20
2023-05-14T01:27:26.635Z,12.20
2023-05-14T01:30:13.961Z,12.20
2023-05-14T01:32:41.917Z,12.10
2023-05-14T01:35:10.685Z,12.10
2023-05-14T01:37:38.707Z,12.20
2023-05-14T01:40:07.076Z,12.10
2023-05-14T01:42:34.665Z,12.10
2023-05-14T01:45:02.467Z,12.10
2023-05-14T01:47:29.455Z,12.10
2023-05-14T01:49:56.433Z,12.10
2023-05-14T01:52:23.519Z,12.10
2023-05-14T01:54:50.560Z,12.10
2023-05-14T01:57:17.557Z,12.10
2023-05-14T01:59:44.450Z,12.10
2023-05-14T02:02:11.485Z,12.10
2023-05-14T02:04:38.371Z,12.10
2023-05-14T02:07:05.489Z,12.20
2023-05-14T02:09:32.571Z,12.20
2023-05-14T02:11:59.505Z,12.20
2023-05-14T02:14:26.436Z,12.10
2023-05-14T02:16:53.358Z,12.10
2023-05-14T02:19:20.402Z,12.10
2023-05-14T02:21:48.222Z,12.10
2023-05-14T02:24:15.225Z,12.10
2023-05-14T02:26:42.384Z,12.10
2023-05-14T02:29:09.338Z,12.10
2023-05-14T02:31:36.446Z,12.10
2023-05-14T02:34:04.402Z,12.10
2023-05-14T02:36:31.840Z,12.10
2023-05-14T02:39:01.181Z,12.10
2023-05-14T02:41:28.324Z,12.10
2023-05-14T02:43:55.210Z,12.10
2023-05-14T02:46:22.419Z,12.10
2023-05-14T02:48:49.365Z,12.10
2023-05-14T02:51:16.759Z,12.10
2023-05-14T02:53:43.671Z,12.10
2023-05-14T02:56:10.617Z,12.10
2023-05-14T02:58:37.512Z,12.10
2023-05-14T03:01:04.756Z,12.10
2023-05-14T03:03:32.064Z,12.10
2023-05-14T03:05:59.621Z,12.10
2023-05-14T03:08:26.545Z,12.10
2023-05-14T03:10:53.486Z,12.10
2023-05-14T03:13:20.798Z,12.00
2023-05-14T03:15:48.010Z,12.00
2023-05-14T03:18:15.243Z,12.10
2023-05-14T03:20:42.436Z,12.00
2023-05-14T03:23:09.410Z,12.00
2023-05-14T03:25:36.442Z,12.00
2023-05-14T03:28:04.105Z,12.00
2023-05-14T03:30:31.106Z,12.00
2023-05-14T03:32:58.124Z,12.00
2023-05-14T03:35:25.123Z,12.00
2023-05-14T03:37:53.094Z,12.00
2023-05-14T03:40:21.400Z,11.90
2023-05-14T03:42:48.556Z,11.90
2023-05-14T03:45:15.492Z,11.90
2023-05-14T03:47:42.478Z,11.90
2023-05-14T03:50:09.656Z,11.90
2023-05-14T03:52:36.775Z,11.90
2023-05-14T03:55:04.332Z,12.00
2023-05-14T03:57:31.310Z,12.00
2023-05-14T03:59:58.401Z,12.00
2023-05-14T04:02:25.532Z,12.00
2023-05-14T04:04:52.607Z,11.90
2023-05-14T04:07:19.620Z,11.90
2023-05-14T04:09:46.505Z,11.90
2023-05-14T04:12:13.549Z,11.90
2023-05-14T04:14:40.583Z,11.90
2023-05-14T04:17:07.508Z,11.90
2023-05-14T04:19:34.381Z,11.90
2023-05-14T04:22:01.352Z,11.90
2023-05-14T04:24:28.241Z,11.90
2023-05-14T04:26:55.193Z,11.90
2023-05-14T04:29:22.212Z,11.90
2023-05-14T04:31:49.922Z,11.90
2023-05-14T04:34:16.894Z,11.90
2023-05-14T04:36:43.820Z,12.00
2023-05-14T04:39:12.924Z,11.90
2023-05-14T04:41:39.903Z,11.90
2023-05-14T04:44:07.196Z,11.90
2023-05-14T04:46:34.196Z,11.90
2023-05-14T04:49:01.239Z,11.90
2023-05-14T04:51:28.632Z,11.90
2023-05-14T04:53:55.524Z,11.90
2023-05-14T04:56:22.405Z,11.80
2023-05-14T04:58:49.294Z,11.80
2023-05-14T05:01:16.272Z,11.80
2023-05-14T05:03:43.278Z,11.80
2023-05-14T05:06:10.346Z,11.80
2023-05-14T05:08:37.666Z,11.80
2023-05-14T05:11:05.211Z,11.80
2023-05-14T05:13:32.346Z,11.70
2023-05-14T05:15:59.483Z,11.70
2023-05-14T05:18:26.562Z,11.70
2023-05-14T05:20:53.610Z,11.70
2023-05-14T05:23:20.532Z,11.70
2023-05-14T05:25:47.442Z,11.80
2023-05-14T05:28:14.522Z,11.80
2023-05-14T05:30:41.459Z,11.80
2023-05-14T05:33:08.495Z,11.80
2023-05-14T05:35:35.571Z,11.70
2023-05-14T05:38:02.456Z,11.70
2023-05-14T05:40:29.500Z,11.70
2023-05-14T05:42:56.413Z,11.80
2023-05-14T05:45:23.430Z,11.80
2023-05-14T05:47:50.453Z,11.80
2023-05-14T05:50:18.965Z,11.80
2023-05-14T05:52:46.980Z,11.80
2023-05-14T05:55:13.905Z,11.80
2023-05-14T05:57:40.863Z,11.80
2023-05-14T06:00:14.437Z,11.80
2023-05-14T06:02:41.835Z,11.90
2023-05-14T06:05:10.939Z,12.00
2023-05-14T06:07:38.413Z,12.00
2023-05-14T06:10:06.500Z,12.00
2023-05-14T06:12:33.487Z,12.00
2023-05-14T06:15:00.478Z,12.00
2023-05-14T06:17:27.741Z,12.10
2023-05-14T06:19:54.673Z,12.00
2023-05-14T06:22:21.591Z,12.00
2023-05-14T06:24:49.116Z,12.00
2023-05-14T06:27:16.039Z,12.10
2023-05-14T06:29:42.936Z,12.10
2023-05-14T06:32:10.472Z,12.10
2023-05-14T06:34:37.536Z,12.10
2023-05-14T06:37:04.749Z,12.10
2023-05-14T06:39:31.764Z,12.20
2023-05-14T06:41:58.661Z,12.20
2023-05-14T06:44:25.632Z,12.30
2023-05-14T06:46:52.568Z,12.40
2023-05-14T06:49:19.585Z,12.40
2023-05-14T06:51:46.544Z,12.50
2023-05-14T06:54:13.589Z,12.50
2023-05-14T06:56:40.567Z,12.60
2023-05-14T06:59:07.451Z,12.60
2023-05-14T07:01:34.397Z,12.60
2023-05-14T07:04:02.833Z,12.50
2023-05-14T07:06:29.772Z,12.50
2023-05-14T07:08:56.694Z,12.50
2023-05-14T07:11:23.607Z,12.50
2023-05-14T07:13:50.703Z,12.40
2023-05-14T07:16:17.692Z,12.50
2023-05-14T07:18:45.497Z,12.60
2023-05-14T07:21:12.692Z,12.60
2023-05-14T07:23:39.620Z,12.60
2023-05-14T07:26:08.521Z,12.60
2023-05-14T07:28:35.768Z,12.70
2023-05-14T07:31:05.095Z,12.70
2023-05-14T07:33:32.127Z,12.60
2023-05-14T07:35:59.010Z,12.60
2023-05-14T07:38:25.997Z,12.60
2023-05-14T07:40:52.933Z,12.60
2023-05-14T07:43:19.827Z,12.70
2023-05-14T07:45:46.791Z,12.60
2023-05-14T07:48:13.850Z,12.70
2023-05-14T07:50:40.841Z,12.70
2023-05-14T07:53:08.052Z,12.70
2023-05-14T07:55:34.995Z,12.80
2023-05-14T07:58:01.875Z,12.80
2023-05-14T08:00:29.013Z,12.90
2023-05-14T08:02:56.267Z,12.90
2023-05-14T08:05:23.404Z,12.90
2023-05-14T08:07:50.311Z,12.90
2023-05-14T08:10:17.197Z,12.90
2023-05-14T08:12:44.191Z,13.00
2023-05-14T08:15:11.433Z,13.00
2023-05-14T08:17:38.417Z,13.10
2023-05-14T08:20:06.774Z,13.10
2023-05-14T08:22:33.760Z,13.20
2023-05-14T08:25:02.868Z,13.20
2023-05-14T08:27:29.781Z,13.10
2023-05-14T08:29:56.996Z,13.10
2023-05-14T08:32:24.374Z,13.30
2023-05-14T08:34:51.771Z,13.30
2023-05-14T08:37:18.935Z,13.30
2023-05-14T08:39:45.938Z,13.40
2023-05-14T08:42:13.873Z,13.40
2023-05-14T08:44:52.413Z,13.40
2023-05-14T08:47:22.409Z,13.50
2023-05-14T08:50:04.814Z,13.60
2023-05-14T08:52:32.329Z,13.70
2023-05-14T08:55:06.443Z,13.80
2023-05-14T08:57:34.498Z,14.00
2023-05-14T09:00:13.154Z,14.00
2023-05-14T09:02:41.794Z,14.10
2023-05-14T09:05:09.453Z,14.20
2023-05-14T09:07:36.696Z,14.40
2023-05-14T09:10:04.721Z,14.40
2023-05-14T09:12:31.683Z,14.40
2023-05-14T09:14:58.641Z,14.40
2023-05-14T09:17:27.885Z,14.50
2023-05-14T09:19:55.047Z,14.40
2023-05-14T09:22:22.475Z,14.50
2023-05-14T09:25:12.496Z,14.70
2023-05-14T09:27:39.671Z,15.00
2023-05-14T09:30:12.397Z,15.40
2023-05-14T09:32:44.182Z,15.80
2023-05-14T09:35:24.318Z,16.20
2023-05-14T09:37:54.432Z,16.60
2023-05-14T09:40:24.120Z,17.20
2023-05-14T09:42:51.621Z,17.70
2023-05-14T09:45:18.927Z,17.70
2023-05-14T09:47:46.265Z,17.40
2023-05-14T09:50:13.343Z,17.40
2023-05-14T09:52:40.506Z,17.40
2023-05-14T09:55:08.314Z,17.40
2023-05-14T09:57:35.446Z,17.30
2023-05-14T10:00:02.822Z,17.30
2023-05-14T10:02:41.373Z,17.60
2023-05-14T10:05:09.759Z,17.70
2023-05-14T10:07:45.504Z,17.80
2023-05-14T10:10:17.151Z,18.20
2023-05-14T10:12:52.493Z,18.30
2023-05-14T10:15:41.664Z,18.40
2023-05-14T10:18:17.307Z,18.70
2023-05-14T10:20:49.146Z,18.80
2023-05-14T10:23:16.461Z,19.00
2023-05-14T10:25:43.875Z,19.10
2023-05-14T10:28:11.674Z,19.30
2023-05-14T10:30:49.523Z,19.60
2023-05-14T10:33:18.477Z,19.70
2023-05-14T10:36:07.344Z,19.90
2023-05-14T10:38:36.895Z,19.90
2023-05-14T10:41:07.101Z,19.60
2023-05-14T10:43:39.767Z,19.50
2023-05-14T10:46:08.838Z,19.40
2023-05-14T10:48:38.059Z,19.70
2023-05-14T10:51:09.299Z,20.10
2023-05-14T10:53:40.666Z,20.30
2023-05-14T10:56:10.988Z,20.50
2023-05-14T10:58:44.041Z,20.60
2023-05-14T11:01:13.177Z,20.90
2023-05-14T11:03:45.904Z,21.00
2023-05-14T11:06:15.549Z,21.00
2023-05-14T11:08:42.956Z,21.20
2023-05-14T11:11:10.979Z,21.20
2023-05-14T11:13:39.674Z,21.20
2023-05-14T11:18:38.677Z,21.40
2023-05-14T11:21:05.773Z,21.80
2023-05-14T11:23:32.799Z,21.90
2023-05-14T11:25:59.728Z,21.90
2023-05-14T11:28:27.249Z,22.00
2023-05-14T11:30:54.703Z,22.30
2023-05-14T11:33:21.654Z,22.30
2023-05-14T11:35:48.829Z,22.60
2023-05-14T11:38:21.192Z,22.70
2023-05-14T11:40:58.710Z,22.70
2023-05-14T11:43:29.139Z,22.50
2023-05-14T11:45:56.613Z,22.40
2023-05-14T11:48:24.576Z,22.30
2023-05-14T11:50:53.132Z,22.30
2023-05-14T11:53:26.371Z,22.50
2023-05-14T11:55:54.623Z,22.50
2023-05-14T11:58:22.127Z,22.30
2023-05-14T12:00:53.755Z,22.50
2023-05-14T12:03:25.516Z,22.50
2023-05-14T12:06:01.564Z,22.40
2023-05-14T12:08:31.338Z,22.50
2023-05-14T12:11:02.094Z,22.30
2023-05-14T12:13:31.226Z,22.10
2023-05-14T12:16:00.834Z,22.40
2023-05-14T12:18:31.655Z,22.60
2023-05-14T12:21:08.166Z,22.80
2023-05-14T12:23:35.869Z,23.00
2023-05-14T12:26:07.997Z,23.10
2023-05-14T12:28:38.292Z,23.30
2023-05-14T12:31:05.638Z,23.60
2023-05-14T12:33:32.640Z,23.60
2023-05-14T12:36:19.853Z,23.60
2023-05-14T12:38:48.336Z,23.60
2023-05-14T12:41:15.269Z,23.60
2023-05-14T12:43:44.572Z,23.70
2023-05-14T12:46:11.571Z,23.80
2023-05-14T12:48:38.647Z,24.10
2023-05-14T12:51:06.219Z,24.00
2023-05-14T12:53:34.148Z,24.00
2023-05-14T12:56:01.418Z,24.10
2023-05-14T12:58:28.298Z,24.10
2023-05-14T13:00:55.294Z,24.00
2023-05-14T13:03:22.377Z,24.10
2023-05-14T13:05:49.374Z,24.20
2023-05-14T13:08:17.832Z,24.40
2023-05-14T13:10:45.474Z,24.50
2023-05-14T13:13:12.945Z,24.40
2023-05-14T13:15:39.847Z,24.60
2023-05-14T13:18:06.906Z,24.50
2023-05-14T13:20:34.754Z,24.60
2023-05-14T13:23:01.657Z,24.30
2023-05-14T13:25:28.849Z,24.50
2023-05-14T13:27:56.065Z,24.80
2023-05-14T13:30:22.979Z,24.60
2023-05-14T13:32:50.070Z,24.70
2023-05-14T13:35:17.160Z,24.70
2023-05-14T13:37:44.693Z,24.90
2023-05-14T13:40:12.398Z,25.30
2023-05-14T13:42:42.495Z,25.10
2023-05-14T13:45:10.035Z,25.10
2023-05-14T13:47:36.998Z,25.30
2023-05-14T13:50:04.562Z,25.00
2023-05-14T13:52:31.447Z,24.50
2023-05-14T13:54:58.403Z,24.10
2023-05-14T13:57:26.028Z,24.10
2023-05-14T13:59:52.979Z,24.00
2023-05-14T14:02:19.919Z,23.90
2023-05-14T14:04:46.895Z,23.90
2023-05-14T14:07:13.773Z,24.00
2023-05-14T14:09:40.743Z,24.00
2023-05-14T14:12:09.105Z,23.90
2023-05-14T14:14:36.015Z,23.80
2023-05-14T14:17:02.990Z,23.70
2023-05-14T14:19:30.045Z,23.60
2023-05-14T14:21:57.087Z,23.50
2023-05-14T14:24:24.030Z,23.10
2023-05-14T14:26:50.939Z,22.80
2023-05-14T14:29:17.814Z,22.60
2023-05-14T14:31:44.746Z,22.50
2023-05-14T14:34:11.655Z,22.40
2023-05-14T14:36:38.569Z,22.10
2023-05-14T14:39:05.508Z,22.20
2023-05-14T14:41:32.410Z,22.20
2023-05-14T14:43:59.460Z,22.10
2023-05-14T14:46:26.508Z,21.80
2023-05-14T14:48:53.431Z,21.50
2023-05-14T14:51:20.487Z,21.00
2023-05-14T14:53:47.776Z,20.90
2023-05-14T14:56:14.664Z,20.70
2023-05-14T14:58:41.585Z,20.80
2023-05-14T15:01:08.616Z,20.60
2023-05-14T15:03:35.917Z,20.70
2023-05-14T15:06:02.945Z,20.80
2023-05-14T15:08:30.054Z,20.70
2023-05-14T15:10:57.379Z,20.80
2023-05-14T15:13:24.810Z,20.90
2023-05-14T15:15:55.060Z,21.00
2023-05-14T15:18:21.985Z,20.90
2023-05-14T15:20:49.427Z,20.80
2023-05-14T15:23:16.401Z,20.70
2023-05-14T15:25:43.419Z,20.60
2023-05-14T15:28:10.816Z,20.60
2023-05-14T15:30:37.803Z,20.60
2023-05-14T15:33:07.712Z,20.50
2023-05-14T15:35:34.775Z,20.20
2023-05-14T15:38:01.736Z,20.00
2023-05-14T15:40:28.727Z,20.10
2023-05-14T15:42:55.609Z,20.00
2023-05-14T15:45:22.531Z,19.90
2023-05-14T15:47:49.653Z,19.70
2023-05-14T15:50:16.719Z,19.50
2023-05-14T15:52:43.650Z,19.50
2023-05-14T15:55:10.842Z,19.50
2023-05-14T15:57:37.964Z,19.60
2023-05-14T16:00:10.543Z,19.60
2023-05-14T16:02:39.591Z,19.60
2023-05-14T16:05:08.442Z,19.60
2023-05-14T16:07:36.199Z,19.70
2023-05-14T16:10:03.485Z,19.70
2023-05-14T16:12:30.564Z,19.60
2023-05-14T16:14:57.727Z,19.60
2023-05-14T16:17:25.955Z,19.60
2023-05-14T16:19:55.352Z,19.50
2023-05-14T16:22:23.116Z,19.50
2023-05-14T16:24:50.028Z,19.20
2023-05-14T16:27:19.158Z,19.10
2023-05-14T16:29:46.224Z,19.10
2023-05-14T16:32:13.427Z,19.20
2023-05-14T16:34:40.726Z,19.00
2023-05-14T16:37:08.066Z,19.10
2023-05-14T16:39:35.018Z,19.00
2023-05-14T16:42:01.934Z,18.70
2023-05-14T16:44:28.825Z,18.60
2023-05-14T16:46:56.596Z,18.40
2023-05-14T16:49:23.568Z,18.30
2023-05-14T16:51:50.529Z,18.20
2023-05-14T16:54:17.460Z,18.10
2023-05-14T16:56:48.384Z,18.30
2023-05-14T16:59:16.345Z,18.40
2023-05-14T17:01:44.565Z,18.30
2023-05-14T17:04:11.842Z,18.20
2023-05-14T17:06:38.961Z,18.20
2023-05-14T17:09:07.034Z,18.00
2023-05-14T17:11:34.044Z,17.90
2023-05-14T17:14:01.050Z,17.80
2023-05-14T17:16:29.120Z,17.70
2023-05-14T17:18:56.121Z,17.60
2023-05-14T17:21:23.034Z,17.60
2023-05-14T17:23:50.035Z,17.50
2023-05-14T17:26:17.011Z,17.40
2023-05-14T17:28:43.917Z,17.30
2023-05-14T17:31:10.839Z,17.20
2023-05-14T17:33:37.845Z,17.20
2023-05-14T17:36:04.973Z,17.10
2023-05-14T17:38:32.106Z,17.00
2023-05-14T17:40:59.391Z,17.00
2023-05-14T17:43:26.332Z,16.90
2023-05-14T17:45:54.793Z,16.90
2023-05-14T17:48:24.090Z,16.80
2023-05-14T17:50:54.070Z,16.60
2023-05-14T17:53:21.222Z,16.50
2023-05-14T17:55:48.800Z,16.50
2023-05-14T17:58:16.265Z,16.40
2023-05-14T18:00:43.687Z,16.40
2023-05-14T18:03:11.577Z,16.30
2023-05-14T18:05:38.950Z,16.20
2023-05-14T18:08:06.093Z,16.10
2023-05-14T18:10:33.074Z,16.00
2023-05-14T18:12:59.979Z,16.00
2023-05-14T18:15:27.434Z,16.00
2023-05-14T18:17:54.648Z,15.90
2023-05-14T18:20:21.710Z,15.80
2023-05-14T18:22:49.422Z,15.70
2023-05-14T18:25:16.579Z,15.70
2023-05-14T18:27:44.998Z,15.60
2023-05-14T18:30:14.724Z,15.50
2023-05-14T18:32:44.140Z,15.40
2023-05-14T18:35:13.200Z,15.30
2023-05-14T18:37:40.944Z,15.20
2023-05-14T18:40:09.487Z,15.10
2023-05-14T18:42:36.407Z,15.00
2023-05-14T18:45:04.323Z,14.90
2023-05-14T18:47:32.180Z,14.80
2023-05-14T18:50:01.636Z,14.70
2023-05-14T18:52:29.431Z,14.60
2023-05-14T18:54:56.712Z,14.50
2023-05-14T18:57:23.669Z,14.40
2023-05-14T18:59:50.644Z,14.40
2023-05-14T19:02:17.715Z,14.30
2023-05-14T19:04:52.198Z,14.20
2023-05-14T19:07:23.201Z,14.10
2023-05-14T19:09:50.411Z,14.00
2023-05-14T19:12:17.314Z,13.90
2023-05-14T19:14:44.270Z,13.80
2023-05-14T19:17:11.422Z,13.70
2023-05-14T19:19:39.333Z,13.60
2023-05-14T19:22:06.794Z,13.50
2023-05-14T19:24:33.952Z,13.40
2023-05-14T19:27:01.177Z,13.40
2023-05-14T19:29:28.123Z,13.30
2023-05-14T19:31:55.136Z,13.20
2023-05-14T19:34:22.066Z,13.20
2023-05-14T19:36:49.015Z,13.10
2023-05-14T19:39:16.022Z,13.10
2023-05-14T19:41:42.900Z,13.00
2023-05-14T19:44:09.863Z,12.90
2023-05-14T19:46:36.895Z,12.90
2023-05-14T19:49:03.785Z,12.80
2023-05-14T19:51:30.831Z,12.80
2023-05-14T19:53:57.763Z,12.70
2023-05-14T19:56:27.022Z,12.70
2023-05-14T19:58:54.569Z,12.60
2023-05-14T20:01:21.730Z,12.60
2023-05-14T20:03:48.709Z,12.60
2023-05-14T20:06:15.770Z,12.50
2023-05-14T20:08:42.792Z,12.40
2023-05-14T20:11:09.715Z,12.40
2023-05-14T20:13:36.790Z,12.40
2023-05-14T20:16:03.853Z,12.30
2023-05-14T20:18:31.174Z,12.30
2023-05-14T20:20:58.357Z,12.30
2023-05-14T20:23:25.393Z,12.20
2023-05-14T20:25:52.421Z,12.10
2023-05-14T20:28:19.298Z,12.10
2023-05-14T20:30:46.295Z,12.00
2023-05-14T20:33:13.820Z,11.90
2023-05-14T20:35:43.804Z,11.80
2023-05-14T20:38:12.840Z,11.80
2023-05-14T20:40:40.165Z,11.70
2023-05-14T20:43:07.069Z,11.70
2023-05-14T20:45:34.214Z,11.70
2023-05-14T20:48:01.443Z,11.60
2023-05-14T20:50:28.443Z,11.60
2023-05-14T20:52:55.789Z,11.60
2023-05-14T20:55:23.222Z,11.60
2023-05-14T20:57:50.603Z,11.50
2023-05-14T21:00:18.174Z,11.40
2023-05-14T21:02:45.452Z,11.40
2023-05-14T21:05:13.778Z,11.30
2023-05-14T21:07:40.979Z,11.30
2023-05-14T21:10:09.712Z,11.30
2023-05-14T21:12:36.738Z,11.30
2023-05-14T21:15:04.039Z,11.20
2023-05-14T21:17:31.115Z,11.10
2023-05-14T21:19:58.025Z,11.00
2023-05-14T21:22:25.099Z,11.00
2023-05-14T21:24:52.068Z,10.90
2023-05-14T21:27:19.498Z,10.90
2023-05-14T21:29:46.690Z,10.80
2023-05-14T21:32:13.767Z,10.80
2023-05-14T21:34:40.713Z,10.80
2023-05-14T21:37:07.763Z,10.80
2023-05-14T21:39:34.878Z,10.70
2023-05-14T21:42:01.835Z,10.70
2023-05-14T21:44:28.827Z,10.70
2023-05-14T21:46:56.030Z,10.60
2023-05-14T21:49:22.960Z,10.60
2023-05-14T21:51:53.167Z,10.60
2023-05-14T21:54:20.933Z,10.60
2023-05-14T21:56:48.066Z,10.50
2023-05-14T21:59:15.235Z,10.50
2023-05-14T22:02:04.891Z,10.50
2023-05-14T22:04:30.275Z,10.40
2023-05-14T22:06:57.152Z,10.40
2023-05-14T22:09:24.094Z,10.40
2023-05-14T22:11:51.026Z,10.40
2023-05-14T22:14:17.971Z,10.30
2023-05-14T22:16:45.058Z,10.30
2023-05-14T22:19:12.207Z,10.30
2023-05-14T22:21:39.385Z,10.20
2023-05-14T22:24:06.639Z,10.20
2023-05-14T22:26:33.687Z,10.20
2023-05-14T22:29:00.750Z,10.10
2023-05-14T22:31:27.625Z,10.10
2023-05-14T22:33:54.797Z,10.00
2023-05-14T22:36:21.774Z,10.10
2023-05-14T22:38:48.742Z,10.10
2023-05-14T22:41:17.589Z,10.10
2023-05-14T22:43:44.742Z,10.10
2023-05-14T22:46:11.694Z,10.00
2023-05-14T22:48:38.644Z,10.00
2023-05-14T22:51:05.732Z,10.00
2023-05-14T22:53:32.702Z,9.90
2023-05-14T22:55:59.702Z,9.80
2023-05-14T22:58:26.573Z,9.70
2023-05-14T23:00:53.487Z,9.60
2023-05-14T23:03:20.443Z,9.60
2023-05-14T23:05:47.353Z,9.50
2023-05-14T23:08:14.389Z,9.50
2023-05-14T23:10:41.312Z,9.50
2023-05-14T23:13:08.226Z,9.60
2023-05-14T23:15:35.240Z,9.60
2023-05-14T23:18:02.381Z,9.60
2023-05-14T23:20:29.362Z,9.60
2023-05-14T23:22:56.304Z,9.60
2023-05-14T23:25:23.473Z,9.60
2023-05-14T23:27:50.706Z,9.60
2023-05-14T23:30:17.817Z,9.60
2023-05-14T23:32:44.931Z,9.70
2023-05-14T23:35:11.925Z,9.70
2023-05-14T23:37:42.580Z,9.70
2023-05-14T23:40:10.462Z,9.70
2023-05-14T23:42:37.464Z,9.70
2023-05-14T23:45:05.273Z,9.80
2023-05-14T23:47:32.421Z,9.70
2023-05-14T23:49:59.356Z,9.70
2023-05-14T23:52:26.320Z,9.70
2023-05-14T23:54:53.565Z,9.70
2023-05-14T23:57:20.781Z,9.70
2023-05-14T23:59:47.720Z,9.70
